createdAt,value
2022-12-03T00:04:01.915Z,36.33
2022-12-03T00:09:07.872Z,38.33
2022-12-03T00:14:13.092Z,33.67
2022-12-03T00:19:19.090Z,19.50
2022-12-03T00:24:24.456Z,37.25
2022-12-03T00:29:30.625Z,48.00
2022-12-03T00:34:36.133Z,65.75
2022-12-03T00:39:42.654Z,156.33
2022-12-03T00:44:49.401Z,40.33
2022-12-03T00:49:54.398Z,49.75
2022-12-03T00:54:59.326Z,57.25
2022-12-03T01:00:05.421Z,25.00
2022-12-03T01:10:17.346Z,34.25
2022-12-03T01:15:23.635Z,31.33
2022-12-03T01:20:29.820Z,44.67
2022-12-03T01:25:34.723Z,32.75
2022-12-03T01:30:59.430Z,15.33
2022-12-03T01:36:04.465Z,41.00
2022-12-03T01:41:11.871Z,30.67
2022-12-03T01:46:22.301Z,50.50
2022-12-03T01:51:27.344Z,39.33
2022-12-03T01:56:32.418Z,43.67
2022-12-03T02:01:37.446Z,45.33
2022-12-03T02:06:43.630Z,106.67
2022-12-03T02:11:53.417Z,69.50
2022-12-03T02:16:59.308Z,49.00
2022-12-03T02:22:33.561Z,107.00
2022-12-03T02:27:38.669Z,34.75
2022-12-03T02:32:45.388Z,30.00
2022-12-03T02:38:12.922Z,40.75
2022-12-03T02:43:20.101Z,36.50
2022-12-03T02:48:33.654Z,15.67
2022-12-03T02:53:48.515Z,36.00
2022-12-03T02:58:59.402Z,31.25
2022-12-03T03:04:06.831Z,27.25
2022-12-03T03:09:14.215Z,21.75
2022-12-03T03:14:22.048Z,9.33
2022-12-03T03:24:37.853Z,44.00
2022-12-03T03:29:43.326Z,20.25
2022-12-03T03:34:50.526Z,33.67
2022-12-03T03:39:59.089Z,45.00
2022-12-03T03:45:05.958Z,31.75
2022-12-03T03:50:14.015Z,29.75
2022-12-03T03:55:22.666Z,39.00
2022-12-03T04:00:28.246Z,18.50
2022-12-03T04:05:34.940Z,18.00
2022-12-03T04:10:59.866Z,18.25
2022-12-03T04:16:05.498Z,34.25
2022-12-03T04:21:32.072Z,31.67
2022-12-03T04:26:56.687Z,45.50
2022-12-03T04:32:20.396Z,17.50
2022-12-03T04:37:27.612Z,2.00
2022-12-03T04:42:35.398Z,1.50
2022-12-03T04:47:41.951Z,2.00
2022-12-03T04:52:48.461Z,2.00
2022-12-03T04:57:55.598Z,2.00
2022-12-03T05:03:01.189Z,4.00
2022-12-03T05:08:07.204Z,3.00
2022-12-03T05:13:12.646Z,3.00
2022-12-03T05:18:19.822Z,0.67
2022-12-03T05:28:30.364Z,6.67
2022-12-03T05:33:40.917Z,3.50
2022-12-03T05:38:49.294Z,5.33
2022-12-03T05:43:56.618Z,4.00
2022-12-03T05:49:03.145Z,3.00
2022-12-03T05:54:08.587Z,1.50
2022-12-03T05:59:13.882Z,8.00
2022-12-03T06:04:20.575Z,2.67
2022-12-03T06:09:26.046Z,11.50
2022-12-03T06:14:34.573Z,2.00
2022-12-03T06:19:39.892Z,4.50
2022-12-03T06:24:45.461Z,8.00
2022-12-03T06:29:52.032Z,4.00
2022-12-03T06:34:57.450Z,10.00
2022-12-03T06:40:04.117Z,3.00
2022-12-03T06:45:12.203Z,6.00
2022-12-03T06:50:19.049Z,2.00
2022-12-03T06:55:25.595Z,3.33
2022-12-03T07:00:30.863Z,7.00
2022-12-03T07:05:41.372Z,1.00
2022-12-03T07:10:50.798Z,13.33
2022-12-03T07:15:57.913Z,13.67
2022-12-03T07:21:04.046Z,8.00
2022-12-03T07:26:13.050Z,7.50
2022-12-03T07:31:22.872Z,59.00
2022-12-03T07:36:29.455Z,60.25
2022-12-03T07:41:34.828Z,8.00
2022-12-03T07:46:40.520Z,5.50
2022-12-03T07:51:54.842Z,20.25
2022-12-03T07:57:03.936Z,22.75
2022-12-03T08:02:11.489Z,38.75
2022-12-03T08:07:18.771Z,37.00
2022-12-03T08:12:45.069Z,10.00
2022-12-03T08:18:04.382Z,23.25
2022-12-03T08:23:26.327Z,16.50
2022-12-03T08:28:33.351Z,10.00
2022-12-03T08:33:43.012Z,32.50
2022-12-03T08:38:53.983Z,37.00
2022-12-03T08:44:01.841Z,18.00
2022-12-03T08:49:07.831Z,23.00
2022-12-03T08:54:22.938Z,35.00
2022-12-03T08:59:35.498Z,32.00
2022-12-03T09:09:52.360Z,32.75
2022-12-03T09:14:58.387Z,45.00
2022-12-03T09:20:04.715Z,60.33
2022-12-03T09:25:12.121Z,47.00
2022-12-03T09:35:24.124Z,26.00
2022-12-03T09:40:31.521Z,94.25
2022-12-03T09:45:37.653Z,82.33
2022-12-03T09:50:44.796Z,39.25
2022-12-03T09:55:52.704Z,48.00
2022-12-03T10:00:59.530Z,18.25
2022-12-03T10:06:06.443Z,20.67
2022-12-03T10:11:13.498Z,11.00
2022-12-03T10:21:39.808Z,13.00
2022-12-03T10:26:48.787Z,12.75
2022-12-03T10:32:00.232Z,15.75
2022-12-03T10:37:26.048Z,25.00
2022-12-03T10:42:38.837Z,9.00
2022-12-03T10:47:46.446Z,4.00
2022-12-03T10:52:52.384Z,12.67
2022-12-03T10:57:59.228Z,10.67
2022-12-03T11:03:05.715Z,13.00
2022-12-03T11:08:22.845Z,23.25
2022-12-03T11:13:41.800Z,4.00
2022-12-03T11:18:48.651Z,4.00
2022-12-03T11:23:55.621Z,4.00
2022-12-03T11:29:02.150Z,7.00
2022-12-03T11:34:22.999Z,14.00
2022-12-03T11:45:13.184Z,7.33
2022-12-03T11:50:39.626Z,15.67
2022-12-03T11:56:15.250Z,21.33
2022-12-03T12:01:39.180Z,8.00
2022-12-03T12:07:02.694Z,20.33
2022-12-03T12:12:43.402Z,12.50
2022-12-03T12:17:52.786Z,13.67
2022-12-03T12:23:28.696Z,12.00
2022-12-03T12:28:38.647Z,13.33
2022-12-03T12:33:45.899Z,36.67
2022-12-03T12:38:52.587Z,9.50
2022-12-03T12:44:02.417Z,10.00
2022-12-03T12:49:15.580Z,13.33
2022-12-03T12:54:27.522Z,15.33
2022-12-03T12:59:34.362Z,28.00
2022-12-03T13:04:41.622Z,26.33
2022-12-03T13:09:52.661Z,49.67
2022-12-03T13:15:02.125Z,41.25
2022-12-03T13:20:22.801Z,35.75
2022-12-03T13:31:26.063Z,31.50
2022-12-03T13:36:57.106Z,13.00
2022-12-03T13:42:45.003Z,47.00
2022-12-03T13:53:29.816Z,47.33
2022-12-03T13:58:35.808Z,36.00
2022-12-03T14:03:46.356Z,9.33
2022-12-03T14:08:55.519Z,11.50
2022-12-03T14:14:02.086Z,14.50
2022-12-03T14:19:09.639Z,27.75
2022-12-03T14:24:16.830Z,57.00
2022-12-03T14:29:24.366Z,53.00
2022-12-03T14:34:31.466Z,62.25
2022-12-03T14:39:40.243Z,29.25
2022-12-03T14:44:50.241Z,84.25
2022-12-03T14:49:57.635Z,80.00
2022-12-03T14:55:04.685Z,48.67
2022-12-03T15:00:12.746Z,67.00
2022-12-03T15:05:22.205Z,95.33
2022-12-03T15:10:35.173Z,161.67
2022-12-03T15:15:46.324Z,72.33
2022-12-03T15:20:54.053Z,82.00
2022-12-03T15:26:07.535Z,114.33
2022-12-03T15:31:18.533Z,49.33
2022-12-03T15:36:26.133Z,22.33
2022-12-03T15:41:33.350Z,21.25
2022-12-03T15:46:47.958Z,35.33
2022-12-03T15:52:03.280Z,138.67
2022-12-03T15:57:15.946Z,49.67
2022-12-03T16:02:26.847Z,31.25
2022-12-03T16:07:36.991Z,43.50
2022-12-03T16:12:45.530Z,25.25
2022-12-03T16:18:03.168Z,35.25
2022-12-03T16:23:11.733Z,13.50
2022-12-03T16:28:19.419Z,24.00
2022-12-03T16:33:33.790Z,24.75
2022-12-03T16:38:44.048Z,4.67
2022-12-03T16:43:51.227Z,6.00
2022-12-03T16:49:01.989Z,2.50
2022-12-03T16:54:09.862Z,2.00
2022-12-03T16:59:16.273Z,5.33
2022-12-03T17:04:23.710Z,2.00
2022-12-03T17:09:30.406Z,2.00
2022-12-03T17:14:37.128Z,2.00
2022-12-03T17:19:42.927Z,6.00
2022-12-03T17:24:49.743Z,6.00
2022-12-03T17:29:55.344Z,4.00
2022-12-03T17:35:01.825Z,9.50
2022-12-03T17:40:09.132Z,2.67
2022-12-03T17:45:15.684Z,4.50
2022-12-03T17:55:33.832Z,7.00
2022-12-03T18:00:41.450Z,5.50
2022-12-03T18:05:46.468Z,5.00
2022-12-03T18:10:52.760Z,2.00
2022-12-03T18:15:57.948Z,2.00
2022-12-03T18:21:05.994Z,8.00
2022-12-03T18:26:10.991Z,9.00
2022-12-03T18:31:18.241Z,0.50
2022-12-03T18:36:28.059Z,2.00
2022-12-03T18:41:33.623Z,3.00
2022-12-03T18:46:55.175Z,4.00
2022-12-03T18:52:01.218Z,0.00
2022-12-03T18:57:06.251Z,9.00
2022-12-03T19:02:38.976Z,2.00
2022-12-03T19:07:46.365Z,0.00
2022-12-03T19:17:55.703Z,2.00
2022-12-03T19:23:00.680Z,0.00
2022-12-03T19:28:06.751Z,2.00
2022-12-03T19:33:17.834Z,2.00
2022-12-03T19:38:25.588Z,8.00
2022-12-03T19:43:33.859Z,2.00
2022-12-03T19:48:40.790Z,4.00
2022-12-03T19:53:47.795Z,2.50
2022-12-03T19:58:58.418Z,5.00
2022-12-03T20:04:05.218Z,2.00
2022-12-03T20:09:19.883Z,4.50
2022-12-03T20:14:25.007Z,0.50
2022-12-03T20:19:29.908Z,5.00
2022-12-03T20:24:36.556Z,4.00
2022-12-03T20:29:43.008Z,6.67
2022-12-03T20:34:48.032Z,0.50
2022-12-03T20:39:54.261Z,4.50
2022-12-03T20:45:00.172Z,2.00
2022-12-03T20:50:06.248Z,0.00
2022-12-03T20:55:13.529Z,0.00
2022-12-03T21:00:18.875Z,2.67
2022-12-03T21:05:23.892Z,3.50
2022-12-03T21:10:37.881Z,2.00
2022-12-03T21:15:43.426Z,0.00
2022-12-03T21:20:50.537Z,8.00
2022-12-03T21:25:57.069Z,0.50
2022-12-03T21:36:08.644Z,8.50
2022-12-03T21:41:15.419Z,4.00
2022-12-03T21:47:08.283Z,2.00
2022-12-03T21:51:45.501Z,7.00
2022-12-03T21:56:50.595Z,0.00
2022-12-03T22:01:56.581Z,2.00
2022-12-03T22:07:01.624Z,2.50
2022-12-03T22:12:06.817Z,0.00
2022-12-03T22:17:11.762Z,7.50
2022-12-03T22:22:17.895Z,2.00
2022-12-03T22:32:28.309Z,2.00
2022-12-03T22:37:34.945Z,6.00
2022-12-03T22:42:39.909Z,3.33
2022-12-03T22:47:45.613Z,6.67
2022-12-03T22:52:52.132Z,2.00
2022-12-03T22:57:58.306Z,5.50
2022-12-03T23:03:03.965Z,4.00
2022-12-03T23:08:12.039Z,5.50
2022-12-03T23:13:18.608Z,3.50
2022-12-03T23:18:24.654Z,6.00
2022-12-03T23:23:31.330Z,28.67
2022-12-03T23:28:39.553Z,37.75
2022-12-03T23:38:50.297Z,30.00
2022-12-03T23:43:56.707Z,29.25
2022-12-03T23:49:03.112Z,30.00
2022-12-03T23:54:08.460Z,29.00
2022-12-03T23:59:14.850Z,56.00
